San Angelo, Texas
Current Conditions -  °F | °C
As of 8:51 PM on Tuesday 25 Nov 2014 (Local Time) from KSJT Reporting Station
Clear Clear  
Wind Chill: 39°   Ceiling: Unl
Heat Index: 44°   Visibility: 10mi
Dew Point: 20°   Wind: 9mph
Humidity: 38%   Direction: 200°SSW
Pressure: 30.16"   Gusts: NA
Location:  31.46°N, 100.44°W
Report Text: KSJT 260251Z AUTO 20008KT 10SM CLR 07/M07 A3016 RMK AO2 SLP220 T00671067 58008
Loading
Personal Weather Stations






























Interactive Weather Map New forecast layout! Learn more

10-Day Weather Forecast

Advertisements
Track Severe Weather on mobile